Time;durP1;ratioP1;P1;durP2;ratioP2;P2;SDS_P1;SDS_P2;PMS_P1;PMS_P2;Temp;Humidity;BMP_temperature;BMP_pressure;BME280_temperature;BME280_humidity;BME280_pressure;Samples;Min_cycle;Max_cycle;Signal;HPM_P1;HPM_P2
2021/01/06 00:00:40;;;;;;;6.15;3.65;;;20.20;38.20;;;;;;5076410;28;20048;-68
2021/01/06 00:03:06;;;;;;;16.88;8.63;;;20.10;38.20;;;;;;5080045;28;20055;-69
2021/01/06 00:05:31;;;;;;;8.95;3.78;;;20.10;38.10;;;;;;5078067;28;20024;-68
2021/01/06 00:07:57;;;;;;;17.90;6.78;;;20.10;38.20;;;;;;5096926;28;20042;-69
2021/01/06 00:10:24;;;;;;;4.65;2.47;;;20.10;38.20;;;;;;5102535;28;20399;-69
2021/01/06 00:12:49;;;;;;;7.38;4.03;;;20.10;38.20;;;;;;5067915;28;20036;-70
2021/01/06 00:15:23;;;;;;;15.43;7.40;;;20.10;38.20;;;;;;5095187;28;20403;-69
2021/01/06 00:17:52;;;;;;;14.65;7.13;;;20.10;38.30;;;;;;5060278;28;20034;-70
2021/01/06 00:20:18;;;;;;;27.50;12.55;;;20.10;38.20;;;;;;5077154;28;20028;-68
2021/01/06 00:22:44;;;;;;;7.28;3.33;;;20.10;38.30;;;;;;5076684;28;20032;-69
2021/01/06 00:25:20;;;;;;;17.60;8.73;;;20.10;38.30;;;;;;5075986;28;20036;-69
2021/01/06 00:27:46;;;;;;;11.55;5.93;;;20.10;38.30;;;;;;5078573;28;20070;-69
2021/01/06 00:30:42;;;;;;;9.07;4.60;;;20.10;38.30;;;;;;5076853;28;20064;-69
2021/01/06 00:33:10;;;;;;;18.60;9.07;;;20.10;38.20;;;;;;5019370;28;20544;-69
2021/01/06 00:35:35;;;;;;;9.30;4.25;;;20.10;38.20;;;;;;5032992;28;20032;-69
2021/01/06 00:38:02;;;;;;;7.43;3.80;;;20.00;38.20;;;;;;5047640;28;20120;-69
2021/01/06 00:40:29;;;;;;;6.63;3.35;;;20.10;38.20;;;;;;5052501;28;20037;-69
2021/01/06 00:42:59;;;;;;;9.73;3.22;;;20.10;38.20;;;;;;5035413;28;20065;-69
2021/01/06 00:45:25;;;;;;;8.15;4.35;;;20.10;38.20;;;;;;5041104;28;20456;-68
2021/01/06 00:47:50;;;;;;;7.40;2.90;;;20.10;38.10;;;;;;5020648;28;20029;-69
2021/01/06 00:50:17;;;;;;;13.65;5.28;;;20.10;38.10;;;;;;5025383;28;20044;-69
2021/01/06 00:52:43;;;;;;;19.98;8.55;;;20.10;38.10;;;;;;5034599;28;20492;-68
2021/01/06 00:55:09;;;;;;;6.75;3.97;;;20.10;38.70;;;;;;5052132;28;20048;-68
2021/01/06 00:57:34;;;;;;;8.10;3.85;;;20.10;38.10;;;;;;5050234;28;20040;-73
2021/01/06 01:00:00;;;;;;;11.65;5.75;;;20.00;38.00;;;;;;5036867;28;20029;-73
2021/01/06 01:02:25;;;;;;;5.68;2.75;;;20.00;38.10;;;;;;5025423;28;20071;-72
2021/01/06 01:04:51;;;;;;;5.50;3.42;;;20.00;38.10;;;;;;5053776;28;20040;-72
2021/01/06 01:07:16;;;;;;;13.85;4.32;;;20.00;38.00;;;;;;5054492;28;20029;-72
2021/01/06 01:09:45;;;;;;;7.05;3.63;;;20.00;38.10;;;;;;5077781;28;20075;-73
2021/01/06 01:12:11;;;;;;;10.23;2.72;;;20.00;38.10;;;;;;5078585;28;20020;-72
2021/01/06 01:14:37;;;;;;;7.13;4.53;;;20.00;38.10;;;;;;5058443;28;20016;-72
2021/01/06 01:17:03;;;;;;;17.73;8.73;;;20.00;38.20;;;;;;5094922;28;20031;-72
2021/01/06 01:19:28;;;;;;;10.52;4.45;;;20.00;38.20;;;;;;5075460;28;20710;-72
2021/01/06 01:21:54;;;;;;;6.65;3.80;;;20.00;38.30;;;;;;5042385;28;20055;-72
2021/01/06 01:24:19;;;;;;;10.05;4.50;;;20.00;38.30;;;;;;5075381;28;20043;-72
2021/01/06 01:26:49;;;;;;;11.27;4.97;;;20.00;38.30;;;;;;5076558;28;20043;-72
2021/01/06 01:29:14;;;;;;;11.35;5.53;;;20.00;38.30;;;;;;5076249;28;20093;-72
2021/01/06 01:31:55;;;;;;;7.38;3.78;;;19.90;38.30;;;;;;5092247;28;20399;-69
2021/01/06 01:34:21;;;;;;;8.80;3.75;;;19.90;38.30;;;;;;5094194;28;20025;-69
2021/01/06 01:36:47;;;;;;;23.70;8.18;;;19.90;38.30;;;;;;5075308;28;20101;-70
2021/01/06 01:39:13;;;;;;;5.53;3.08;;;19.90;38.30;;;;;;5082712;28;20024;-69
2021/01/06 01:41:39;;;;;;;7.43;3.67;;;19.90;38.30;;;;;;5073533;28;20078;-69
2021/01/06 01:44:05;;;;;;;10.57;5.32;;;19.90;38.40;;;;;;5073764;28;20032;-69
2021/01/06 01:47:15;;;;;;;12.82;6.22;;;19.80;38.30;;;;;;5089754;28;20034;-69
2021/01/06 01:49:44;;;;;;;8.95;3.78;;;19.90;38.40;;;;;;4975031;28;20049;-69
2021/01/06 01:52:25;;;;;;;15.13;8.00;;;19.80;38.40;;;;;;4959571;28;20042;-70
2021/01/06 01:54:51;;;;;;;5.53;3.25;;;19.80;38.40;;;;;;4991094;28;20040;-70
2021/01/06 01:57:19;;;;;;;12.02;5.30;;;19.80;38.50;;;;;;4991758;28;20101;-71
2021/01/06 02:00:11;;;;;;;13.05;5.57;;;19.80;38.40;;;;;;4991630;28;20070;-71
2021/01/06 02:02:48;;;;;;;7.70;3.22;;;19.80;38.40;;;;;;4974490;28;20065;-71
2021/01/06 02:05:18;;;;;;;8.10;4.40;;;19.80;38.50;;;;;;4965312;28;20108;-71
2021/01/06 02:07:57;;;;;;;5.53;2.85;;;19.80;38.40;;;;;;4983313;28;20042;-70
2021/01/06 02:10:32;;;;;;;13.90;5.90;;;19.80;38.40;;;;;;4957033;28;20018;-70
2021/01/06 02:13:49;;;;;;;5.82;3.22;;;19.80;38.40;;;;;;5004044;28;20030;-69
2021/01/06 02:16:44;;;;;;;5.10;3.05;;;19.80;38.50;;;;;;4974746;28;20530;-69
2021/01/06 02:19:11;;;;;;;4.60;3.30;;;19.80;38.60;;;;;;4987881;28;20062;-69
2021/01/06 02:21:37;;;;;;;6.88;3.50;;;19.80;38.60;;;;;;5049883;28;20044;-69
2021/01/06 02:24:03;;;;;;;7.93;3.75;;;19.80;38.50;;;;;;5058111;28;20046;-69
2021/01/06 02:26:29;;;;;;;3.97;2.13;;;19.80;38.50;;;;;;5092362;28;20058;-69
2021/01/06 02:28:55;;;;;;;7.68;3.45;;;19.80;38.50;;;;;;5058946;28;20043;-69
2021/01/06 02:31:21;;;;;;;12.75;2.90;;;19.80;38.50;;;;;;5069297;28;20474;-69
2021/01/06 02:33:47;;;;;;;7.25;3.80;;;19.80;38.60;;;;;;5073706;28;20024;-69
2021/01/06 02:36:13;;;;;;;5.53;3.53;;;19.80;38.50;;;;;;5056816;28;20020;-69
2021/01/06 02:38:39;;;;;;;6.93;3.53;;;19.80;38.60;;;;;;5072299;28;20089;-69
2021/01/06 02:41:04;;;;;;;2.72;2.22;;;19.80;38.40;;;;;;5044415;28;20032;-70
2021/01/06 02:43:36;;;;;;;6.38;3.10;;;19.80;38.40;;;;;;5086921;28;20038;-69
2021/01/06 02:46:02;;;;;;;6.35;3.15;;;19.80;38.40;;;;;;5053841;28;20150;-69
2021/01/06 02:48:27;;;;;;;4.25;2.50;;;19.80;38.40;;;;;;5055001;28;20051;-70
2021/01/06 02:50:56;;;;;;;8.60;3.95;;;19.80;38.50;;;;;;5087892;28;20024;-70
2021/01/06 02:53:25;;;;;;;7.18;3.72;;;19.70;38.40;;;;;;5072141;28;20044;-70
2021/01/06 02:55:50;;;;;;;6.07;2.72;;;19.70;38.50;;;;;;5074857;28;20391;-70
2021/01/06 02:58:17;;;;;;;3.88;2.58;;;19.70;38.50;;;;;;5058479;28;20032;-70
2021/01/06 03:00:43;;;;;;;7.78;4.80;;;19.70;38.50;;;;;;5073496;28;20021;-69
2021/01/06 03:03:09;;;;;;;9.13;4.10;;;19.70;38.50;;;;;;5077712;28;20043;-70
2021/01/06 03:05:36;;;;;;;8.77;5.13;;;19.70;38.50;;;;;;5056150;28;20113;-72
2021/01/06 03:08:09;;;;;;;16.42;8.68;;;19.70;38.50;;;;;;5070454;28;20074;-70
2021/01/06 03:10:35;;;;;;;6.22;2.80;;;19.70;38.60;;;;;;5092253;28;20032;-69
2021/01/06 03:13:00;;;;;;;13.35;6.07;;;19.70;38.60;;;;;;5077433;28;20028;-69
2021/01/06 03:15:27;;;;;;;14.90;7.20;;;19.60;38.60;;;;;;5077409;28;20403;-69
2021/01/06 03:17:59;;;;;;;4.72;2.95;;;19.60;38.60;;;;;;5078302;28;20082;-70
2021/01/06 03:20:30;;;;;;;15.27;7.65;;;19.60;38.70;;;;;;5060764;28;20110;-69
2021/01/06 03:23:07;;;;;;;14.18;7.50;;;19.60;38.70;;;;;;5096888;28;20036;-70
2021/01/06 03:25:34;;;;;;;10.55;5.38;;;19.60;38.70;;;;;;5066880;28;20074;-69
2021/01/06 03:27:59;;;;;;;2.63;2.00;;;19.60;38.80;;;;;;5069395;28;20126;-69
2021/01/06 03:30:27;;;;;;;5.93;2.53;;;19.60;38.80;;;;;;5058441;28;20515;-70
2021/01/06 03:33:14;;;;;;;10.45;4.80;;;19.60;38.80;;;;;;5053947;28;20017;-70
2021/01/06 03:36:00;;;;;;;6.95;2.95;;;19.60;38.80;;;;;;5076456;28;20033;-71
2021/01/06 03:38:32;;;;;;;5.90;3.97;;;19.60;38.90;;;;;;5058268;28;20491;-71
2021/01/06 03:40:58;;;;;;;4.82;2.65;;;19.60;38.90;;;;;;5041540;28;20492;-70
2021/01/06 03:43:28;;;;;;;14.90;8.98;;;19.50;38.90;;;;;;5057763;28;20052;-71
2021/01/06 03:46:32;;;;;;;13.50;5.97;;;19.50;38.90;;;;;;5085609;28;20032;-70
2021/01/06 03:49:06;;;;;;;5.13;2.10;;;19.50;38.90;;;;;;4977146;28;20458;-70
2021/01/06 03:51:55;;;;;;;5.60;3.17;;;19.50;39.00;;;;;;4978896;28;20534;-70
2021/01/06 03:54:26;;;;;;;4.15;2.25;;;19.50;38.90;;;;;;4995867;28;20029;-70
2021/01/06 03:56:52;;;;;;;7.82;4.65;;;19.50;38.90;;;;;;4989808;28;20041;-70
2021/01/06 03:59:25;;;;;;;4.68;2.67;;;19.60;38.90;;;;;;4978266;28;20132;-69
2021/01/06 04:01:59;;;;;;;7.88;4.50;;;19.50;38.80;;;;;;4993737;28;20425;-70
2021/01/06 04:04:49;;;;;;;9.95;4.47;;;19.50;38.90;;;;;;4996952;28;20081;-69
2021/01/06 04:07:27;;;;;;;8.45;4.65;;;19.50;38.90;;;;;;4996101;28;20433;-70
2021/01/06 04:10:11;;;;;;;5.97;3.47;;;19.50;38.90;;;;;;4962912;28;20034;-69
2021/01/06 04:12:36;;;;;;;12.07;6.50;;;19.50;38.90;;;;;;4977999;28;20506;-72
2021/01/06 04:15:04;;;;;;;2.00;1.50;;;19.50;38.90;;;;;;4983697;28;20048;-73
2021/01/06 04:17:33;;;;;;;14.82;7.93;;;19.50;39.00;;;;;;4979258;28;20095;-72
2021/01/06 04:20:19;;;;;;;3.05;1.75;;;19.50;39.00;;;;;;4979269;28;20037;-72
2021/01/06 04:22:53;;;;;;;12.50;7.68;;;19.50;39.00;;;;;;5024480;28;20040;-70
2021/01/06 04:25:25;;;;;;;8.73;3.95;;;19.50;39.00;;;;;;5060750;28;20403;-70
2021/01/06 04:27:56;;;;;;;3.22;2.50;;;19.50;39.00;;;;;;5056706;28;20068;-70
2021/01/06 04:30:34;;;;;;;14.93;8.05;;;19.50;39.00;;;;;;5057286;28;20016;-69
2021/01/06 04:33:01;;;;;;;9.15;2.75;;;19.50;39.00;;;;;;5041596;28;20045;-72
2021/01/06 04:35:39;;;;;;;3.05;2.17;;;19.50;39.80;;;;;;5067738;28;20024;-72
2021/01/06 04:38:05;;;;;;;7.35;3.90;;;19.40;39.20;;;;;;5088736;28;20024;-73
2021/01/06 04:40:41;;;;;;;8.75;4.20;;;19.50;39.40;;;;;;5070733;28;20155;-74
2021/01/06 04:43:24;;;;;;;10.43;6.22;;;19.50;39.40;;;;;;5082576;28;20035;-74
2021/01/06 04:46:06;;;;;;;3.78;1.40;;;19.50;39.40;;;;;;5081591;28;20032;-73
2021/01/06 04:48:35;;;;;;;5.85;2.33;;;19.50;39.40;;;;;;5070719;28;20107;-73
2021/01/06 04:51:27;;;;;;;5.65;3.03;;;19.40;39.30;;;;;;5078399;28;20024;-74
2021/01/06 04:54:22;;;;;;;12.82;6.82;;;19.50;39.30;;;;;;5078067;28;20061;-73
2021/01/06 04:56:58;;;;;;;8.27;4.30;;;19.50;39.30;;;;;;5063524;28;20024;-72
2021/01/06 04:59:49;;;;;;;7.72;4.63;;;19.40;39.30;;;;;;5084095;28;20032;-69
2021/01/06 05:02:43;;;;;;;2.63;2.03;;;19.40;39.30;;;;;;5076672;28;20032;-69
2021/01/06 05:05:23;;;;;;;6.10;2.25;;;19.40;39.50;;;;;;5093074;28;20495;-69
2021/01/06 05:07:52;;;;;;;4.50;2.50;;;19.40;39.50;;;;;;5070620;28;20052;-69
2021/01/06 05:10:34;;;;;;;3.08;2.22;;;19.40;39.40;;;;;;5075542;28;20033;-69
2021/01/06 05:13:26;;;;;;;3.75;2.08;;;19.40;39.50;;;;;;5059681;28;20074;-69
2021/01/06 05:16:15;;;;;;;4.30;2.50;;;19.50;39.50;;;;;;5070226;28;20032;-69
2021/01/06 05:18:41;;;;;;;3.63;2.03;;;19.50;39.30;;;;;;5075776;28;20036;-69
2021/01/06 05:21:15;;;;;;;5.07;2.58;;;19.60;39.20;;;;;;5076645;28;20571;-72
2021/01/06 05:23:41;;;;;;;3.22;1.92;;;19.60;39.10;;;;;;5069241;28;20035;-73
2021/01/06 05:26:06;;;;;;;4.18;2.53;;;19.70;39.10;;;;;;5060768;28;20098;-74
2021/01/06 05:28:32;;;;;;;5.25;2.78;;;19.80;39.00;;;;;;5075275;28;20036;-73
2021/01/06 05:31:00;;;;;;;4.72;2.13;;;19.80;38.80;;;;;;5076533;28;20081;-73
2021/01/06 05:33:49;;;;;;;4.20;2.20;;;19.90;38.70;;;;;;5080133;28;20020;-73
2021/01/06 05:36:27;;;;;;;2.83;1.67;;;19.90;38.60;;;;;;5041641;28;20107;-72
2021/01/06 05:38:53;;;;;;;3.83;2.15;;;20.00;38.50;;;;;;5048345;28;20036;-72
2021/01/06 05:41:19;;;;;;;3.45;1.98;;;20.00;38.40;;;;;;5075957;28;20048;-72
2021/01/06 05:43:49;;;;;;;3.28;1.77;;;20.00;38.30;;;;;;5093135;28;20055;-73
2021/01/06 05:46:26;;;;;;;3.58;2.28;;;20.00;38.30;;;;;;5064319;28;20052;-73
2021/01/06 05:49:04;;;;;;;2.33;1.65;;;20.10;38.30;;;;;;5056109;28;20062;-69
2021/01/06 05:51:34;;;;;;;2.85;2.10;;;20.10;38.20;;;;;;5043600;28;20020;-69
2021/01/06 05:54:01;;;;;;;2.72;1.70;;;20.20;38.10;;;;;;5067518;28;20031;-69
2021/01/06 05:56:49;;;;;;;3.33;1.85;;;20.20;38.80;;;;;;5074291;28;20023;-69
2021/01/06 05:59:30;;;;;;;3.75;1.63;;;20.20;38.10;;;;;;5053104;28;20021;-69
2021/01/06 06:02:13;;;;;;;3.00;1.88;;;20.20;38.10;;;;;;5092746;28;20028;-73
2021/01/06 06:05:13;;;;;;;4.70;2.08;;;20.30;38.10;;;;;;5061006;28;20024;-73
2021/01/06 06:08:16;;;;;;;2.40;1.92;;;20.20;38.10;;;;;;5094086;28;20016;-74
2021/01/06 06:11:03;;;;;;;3.17;1.92;;;20.30;38.20;;;;;;5090309;28;20024;-74
2021/01/06 06:13:40;;;;;;;2.45;1.60;;;20.30;38.10;;;;;;5074331;28;20024;-75
2021/01/06 06:16:24;;;;;;;3.63;2.25;;;20.30;38.20;;;;;;5076354;28;20051;-74
2021/01/06 06:19:17;;;;;;;3.38;1.83;;;20.30;38.20;;;;;;5077658;28;20491;-74
2021/01/06 06:22:02;;;;;;;2.63;1.90;;;20.30;38.20;;;;;;5092904;28;20036;-74
2021/01/06 06:25:03;;;;;;;4.95;1.95;;;20.30;38.20;;;;;;5092783;28;20510;-74
2021/01/06 06:27:37;;;;;;;1.83;1.67;;;20.30;38.20;;;;;;5014642;28;20030;-73
2021/01/06 06:30:13;;;;;;;3.65;2.00;;;20.30;38.20;;;;;;5012288;28;20073;-74
2021/01/06 06:32:40;;;;;;;2.50;1.50;;;20.30;38.20;;;;;;5011943;28;20022;-74
2021/01/06 06:35:06;;;;;;;2.20;1.60;;;20.30;38.20;;;;;;4997198;28;20065;-73
2021/01/06 06:37:32;;;;;;;3.15;1.50;;;20.30;38.20;;;;;;5012796;28;20030;-74
2021/01/06 06:39:58;;;;;;;3.15;1.73;;;20.30;38.20;;;;;;5001346;28;20030;-74
2021/01/06 06:42:35;;;;;;;2.53;1.67;;;20.30;38.20;;;;;;5015114;28;20046;-74
2021/01/06 06:45:36;;;;;;;3.05;1.60;;;20.40;38.30;;;;;;5015899;28;20501;-69
2021/01/06 06:48:33;;;;;;;2.80;2.08;;;20.30;38.30;;;;;;5024907;28;20571;-69
2021/01/06 06:51:10;;;;;;;4.78;1.58;;;20.40;38.30;;;;;;5012910;28;20053;-74
2021/01/06 06:54:02;;;;;;;3.33;2.30;;;20.40;38.40;;;;;;5029279;28;20064;-74
2021/01/06 06:56:44;;;;;;;2.75;1.33;;;20.40;38.30;;;;;;5014167;28;20029;-73
2021/01/06 06:59:12;;;;;;;3.67;1.75;;;20.40;38.30;;;;;;4998314;28;20060;-69
2021/01/06 07:01:42;;;;;;;2.90;1.85;;;20.40;39.00;;;;;;5025876;28;20040;-70
2021/01/06 07:04:47;;;;;;;2.28;1.65;;;20.40;38.30;;;;;;5032944;28;20060;-70
2021/01/06 07:07:38;;;;;;;3.28;1.73;;;20.40;38.30;;;;;;5048986;28;20507;-70
2021/01/06 07:10:26;;;;;;;5.47;1.65;;;20.40;38.30;;;;;;5071611;28;20040;-70
2021/01/06 07:12:54;;;;;;;2.63;1.38;;;20.40;38.30;;;;;;5049708;28;20028;-70
2021/01/06 07:18:46;;;;;;;3.67;1.50;;;20.50;38.40;;;;;;5071025;28;20449;-70
2021/01/06 07:21:12;;;;;;;4.20;1.85;;;20.40;38.30;;;;;;5052670;28;20354;-70
2021/01/06 07:23:48;;;;;;;2.47;1.65;;;20.40;38.30;;;;;;5068116;28;20075;-69
2021/01/06 07:26:29;;;;;;;1.45;1.10;;;20.50;38.40;;;;;;5054363;28;20042;-69
2021/01/06 07:29:02;;;;;;;3.45;1.70;;;20.40;38.30;;;;;;5042085;28;20085;-69
2021/01/06 07:31:30;;;;;;;9.02;2.20;;;20.50;38.50;;;;;;5049655;28;20013;-69
2021/01/06 07:34:00;;;;;;;5.10;1.90;;;20.50;38.60;;;;;;5032103;28;20393;-69
2021/01/06 07:36:33;;;;;;;3.30;1.60;;;20.50;38.80;;;;;;5049614;28;20013;-70
2021/01/06 07:39:02;;;;;;;6.90;1.92;;;20.50;38.90;;;;;;5017765;28;20124;-69
2021/01/06 07:41:28;;;;;;;3.25;1.98;;;20.50;38.90;;;;;;5040316;28;20038;-70
2021/01/06 07:44:18;;;;;;;3.72;2.00;;;20.50;38.90;;;;;;5053575;28;20408;-69
2021/01/06 07:47:01;;;;;;;2.85;1.60;;;20.50;38.80;;;;;;5049857;28;20016;-69
2021/01/06 07:49:47;;;;;;;2.35;1.58;;;20.50;38.90;;;;;;5052085;28;20036;-69
2021/01/06 07:52:37;;;;;;;0.85;0.85;;;20.50;38.80;;;;;;5065081;28;20044;-69
2021/01/06 07:55:22;;;;;;;8.05;1.80;;;20.50;39.20;;;;;;5037342;28;20033;-69
2021/01/06 07:58:00;;;;;;;2.88;1.40;;;20.60;38.50;;;;;;5040985;28;20029;-69
2021/01/06 08:00:46;;;;;;;1.55;1.10;;;20.60;38.30;;;;;;5038135;28;20037;-69
2021/01/06 08:03:35;;;;;;;;;;;20.50;38.20;;;;;;5059299;28;20039;-69
2021/01/06 08:06:01;;;;;;;3.13;1.38;;;20.60;38.20;;;;;;4994088;28;19913;-69
2021/01/06 08:08:39;;;;;;;3.97;1.80;;;20.60;38.20;;;;;;4984323;28;20056;-68
2021/01/06 08:11:08;;;;;;;1.65;1.48;;;20.60;38.20;;;;;;4996465;28;20526;-68
2021/01/06 08:13:36;;;;;;;2.47;1.70;;;20.50;38.10;;;;;;4980856;28;20030;-69
2021/01/06 08:16:17;;;;;;;3.08;1.40;;;20.50;38.10;;;;;;4989299;28;20027;-69
2021/01/06 08:19:01;;;;;;;2.08;1.35;;;20.50;38.10;;;;;;5002145;28;20034;-69
2021/01/06 08:21:34;;;;;;;2.75;1.65;;;20.60;38.20;;;;;;5005413;28;20034;-69
2021/01/06 08:24:10;;;;;;;2.55;1.45;;;20.50;38.10;;;;;;5006311;28;20518;-68
2021/01/06 08:26:38;;;;;;;2.22;1.30;;;20.50;38.10;;;;;;4997511;28;20406;-68
2021/01/06 08:29:22;;;;;;;1.73;1.38;;;20.60;38.00;;;;;;4993107;28;20046;-70
2021/01/06 08:32:02;;;;;;;3.22;1.30;;;20.60;37.90;;;;;;4998566;28;20022;-71
2021/01/06 08:34:39;;;;;;;1.45;1.33;;;20.60;37.90;;;;;;4993362;28;20030;-70
2021/01/06 08:37:11;;;;;;;1.88;1.15;;;20.60;37.90;;;;;;4960744;28;20450;-70
2021/01/06 08:39:39;;;;;;;4.40;1.90;;;20.60;37.90;;;;;;4988138;28;20395;-70
2021/01/06 08:42:41;;;;;;;3.70;1.65;;;20.60;37.80;;;;;;5020411;28;20104;-70
2021/01/06 08:45:23;;;;;;;3.30;0.98;;;20.60;37.70;;;;;;5076205;28;20111;-70
2021/01/06 08:47:49;;;;;;;1.98;0.73;;;20.60;37.70;;;;;;5076445;28;20039;-70
2021/01/06 08:50:34;;;;;;;1.77;1.42;;;20.60;37.70;;;;;;5076046;28;20038;-70
2021/01/06 08:53:01;;;;;;;2.75;1.55;;;20.60;37.70;;;;;;5055336;28;20024;-72
2021/01/06 08:55:38;;;;;;;1.38;1.20;;;20.60;37.60;;;;;;5094392;28;20032;-71
2021/01/06 08:58:11;;;;;;;3.28;1.63;;;20.60;37.40;;;;;;5039990;28;20024;-71
2021/01/06 09:01:02;;;;;;;2.15;1.33;;;20.70;37.40;;;;;;5058095;28;20032;-71
2021/01/06 09:03:44;;;;;;;2.20;1.65;;;20.70;37.30;;;;;;5081212;28;20039;-69
2021/01/06 09:06:10;;;;;;;0.82;0.73;;;20.70;37.10;;;;;;5064521;28;20040;-71
2021/01/06 09:08:38;;;;;;;1.27;1.10;;;20.70;37.10;;;;;;5081292;28;20067;-72
2021/01/06 09:11:54;;;;;;;2.53;1.58;;;20.70;37.20;;;;;;5093761;28;20048;-72
2021/01/06 09:14:31;;;;;;;2.90;1.58;;;20.70;37.30;;;;;;5063206;28;20066;-75
2021/01/06 09:17:20;;;;;;;1.80;1.02;;;20.70;37.30;;;;;;5070300;28;20032;-73
2021/01/06 09:19:50;;;;;;;2.50;1.50;;;20.60;37.20;;;;;;5085635;28;20074;-74
2021/01/06 09:22:16;;;;;;;4.13;1.60;;;20.60;37.30;;;;;;5060207;28;20065;-74
2021/01/06 09:24:46;;;;;;;6.95;1.40;;;20.60;37.40;;;;;;5066701;28;20024;-75
2021/01/06 09:27:29;;;;;;;2.03;1.60;;;20.60;37.40;;;;;;5070982;28;20089;-74
2021/01/06 09:29:55;;;;;;;4.72;1.52;;;20.60;37.40;;;;;;5066536;28;20078;-75
2021/01/06 09:32:32;;;;;;;3.35;1.60;;;20.60;37.50;;;;;;5061047;28;20503;-75
2021/01/06 09:35:04;;;;;;;2.33;1.40;;;20.60;37.50;;;;;;5034231;28;20541;-75
2021/01/06 09:37:32;;;;;;;2.25;1.05;;;20.60;37.50;;;;;;5056091;28;20492;-74
2021/01/06 09:40:16;;;;;;;3.00;1.05;;;20.60;37.50;;;;;;5094039;28;20568;-75
2021/01/06 09:42:42;;;;;;;4.60;1.70;;;20.60;37.50;;;;;;5037902;28;20036;-74
2021/01/06 09:45:14;;;;;;;3.83;1.40;;;20.60;37.60;;;;;;5036731;28;20522;-74
2021/01/06 09:47:42;;;;;;;3.33;1.63;;;20.60;37.50;;;;;;5056310;28;20029;-73
2021/01/06 09:50:58;;;;;;;1.45;1.00;;;20.60;37.50;;;;;;5074420;28;20021;-70
2021/01/06 09:53:25;;;;;;;3.25;1.52;;;20.70;37.50;;;;;;4989427;28;20505;-70
2021/01/06 09:55:52;;;;;;;2.47;1.50;;;20.60;37.50;;;;;;4955897;28;20114;-69
2021/01/06 09:58:25;;;;;;;3.75;1.08;;;20.60;37.50;;;;;;4966799;28;20038;-70
2021/01/06 10:00:54;;;;;;;3.13;1.42;;;20.70;37.50;;;;;;4967973;28;20027;-70
2021/01/06 10:03:20;;;;;;;1.65;1.30;;;20.70;37.50;;;;;;4974857;28;20065;-69
2021/01/06 10:06:11;;;;;;;2.28;1.25;;;20.70;37.50;;;;;;4968901;28;20031;-69
2021/01/06 10:08:41;;;;;;;2.80;1.85;;;20.70;37.40;;;;;;4959769;28;20525;-70
2021/01/06 10:11:19;;;;;;;5.63;1.58;;;20.70;37.40;;;;;;4972959;28;20023;-70
2021/01/06 10:13:52;;;;;;;2.55;1.67;;;20.70;37.30;;;;;;4975015;28;20030;-70
2021/01/06 10:16:22;;;;;;;7.57;2.05;;;20.70;37.40;;;;;;4958644;28;20589;-70
2021/01/06 10:18:52;;;;;;;3.95;2.20;;;20.70;37.40;;;;;;4955753;28;20131;-69
2021/01/06 10:21:25;;;;;;;2.60;1.15;;;20.80;37.40;;;;;;4955448;28;20034;-70
2021/01/06 10:23:54;;;;;;;4.07;1.77;;;20.80;37.40;;;;;;4974835;28;20058;-70
2021/01/06 10:26:38;;;;;;;6.10;1.65;;;20.80;37.40;;;;;;4978239;28;20026;-69
2021/01/06 10:29:30;;;;;;;6.55;1.77;;;20.80;37.40;;;;;;5027836;28;20127;-69
2021/01/06 10:32:12;;;;;;;3.03;1.58;;;20.80;37.40;;;;;;5062370;28;20404;-70
2021/01/06 10:34:42;;;;;;;3.35;2.08;;;20.80;37.40;;;;;;5074151;28;20020;-70
2021/01/06 10:37:23;;;;;;;3.92;1.30;;;20.80;37.40;;;;;;5048688;28;20028;-70
2021/01/06 10:39:54;;;;;;;7.93;1.70;;;20.80;37.40;;;;;;5070204;28;20056;-70
2021/01/06 10:42:22;;;;;;;2.90;1.55;;;20.80;37.30;;;;;;5057348;28;20371;-68
2021/01/06 10:44:54;;;;;;;3.13;1.58;;;20.80;37.30;;;;;;5083595;28;20093;-68
2021/01/06 10:47:31;;;;;;;1.15;1.05;;;20.80;37.30;;;;;;5072456;28;20024;-68
2021/01/06 10:50:03;;;;;;;3.35;1.55;;;20.80;37.20;;;;;;5093821;28;20092;-68
2021/01/06 10:52:58;;;;;;;5.97;1.45;;;20.80;37.20;;;;;;5057951;28;20045;-70
2021/01/06 10:55:37;;;;;;;3.22;1.67;;;20.80;37.20;;;;;;5061574;28;20027;-68
2021/01/06 10:58:05;;;;;;;2.53;1.60;;;20.80;37.30;;;;;;5060028;28;20032;-71
2021/01/06 11:00:47;;;;;;;2.78;1.33;;;20.80;37.30;;;;;;5085796;28;20039;-70
2021/01/06 11:03:34;;;;;;;4.80;1.17;;;20.80;37.30;;;;;;5068097;28;20056;-70
2021/01/06 11:06:11;;;;;;;4.32;2.30;;;20.80;37.30;;;;;;5069394;28;20020;-70
2021/01/06 11:08:52;;;;;;;3.53;1.15;;;20.80;37.30;;;;;;5054597;28;20032;-71
2021/01/06 11:11:33;;;;;;;2.83;1.45;;;20.80;37.20;;;;;;5062391;28;20040;-70
2021/01/06 11:17:18;;;;;;;3.53;1.83;;;20.80;38.00;;;;;;5045502;28;20040;-70
2021/01/06 11:19:47;;;;;;;2.95;1.30;;;20.80;37.20;;;;;;5051890;28;20033;-69
2021/01/06 11:22:43;;;;;;;2.75;1.45;;;20.80;37.20;;;;;;5029623;28;20528;-69
2021/01/06 11:25:35;;;;;;;4.18;1.58;;;20.80;37.20;;;;;;5049184;28;20025;-70
2021/01/06 11:28:03;;;;;;;3.78;1.30;;;20.80;37.20;;;;;;5032771;28;20045;-70
2021/01/06 11:30:33;;;;;;;2.67;1.65;;;20.80;37.20;;;;;;5049725;28;20061;-69
2021/01/06 11:33:14;;;;;;;3.65;1.73;;;20.80;37.10;;;;;;5028207;28;20532;-69
2021/01/06 11:35:54;;;;;;;4.53;1.88;;;20.80;37.10;;;;;;5028112;28;20022;-70
2021/01/06 11:38:38;;;;;;;1.58;1.35;;;20.80;37.10;;;;;;5051064;28;20603;-70
2021/01/06 11:41:16;;;;;;;3.08;2.00;;;20.80;37.00;;;;;;5040151;28;20529;-69
2021/01/06 11:44:02;;;;;;;2.25;1.25;;;20.90;37.10;;;;;;5046931;28;20047;-69
2021/01/06 11:46:32;;;;;;;1.40;1.10;;;20.90;37.00;;;;;;5051328;28;20039;-69
2021/01/06 11:49:27;;;;;;;3.88;1.73;;;20.90;37.00;;;;;;5060007;28;20043;-69
2021/01/06 11:52:24;;;;;;;4.40;1.73;;;20.90;37.00;;;;;;5071217;28;20043;-69
2021/01/06 11:55:12;;;;;;;3.35;1.83;;;20.90;36.90;;;;;;5052859;28;20099;-75
2021/01/06 12:01:12;;;;;;;3.10;1.77;;;20.80;37.50;;;;;;5037302;28;20060;-75
2021/01/06 12:03:54;;;;;;;3.65;1.90;;;20.80;36.80;;;;;;5019784;28;20041;-74
2021/01/06 12:06:45;;;;;;;3.30;1.80;;;20.80;36.80;;;;;;5032710;28;20191;-75
2021/01/06 12:09:15;;;;;;;2.53;1.83;;;20.80;36.70;;;;;;5019731;28;20041;-75
2021/01/06 12:11:49;;;;;;;4.03;1.83;;;20.80;36.80;;;;;;5021069;28;20131;-74
2021/01/06 12:14:28;;;;;;;3.60;2.40;;;20.80;36.80;;;;;;5038079;28;20478;-75
2021/01/06 12:17:45;;;;;;;3.75;2.05;;;20.80;36.80;;;;;;5033290;28;20025;-75
2021/01/06 12:20:27;;;;;;;4.32;2.70;;;20.80;36.80;;;;;;4959788;28;20036;-75
2021/01/06 12:23:14;;;;;;;4.43;1.92;;;20.80;36.80;;;;;;4960413;29;20114;-74
2021/01/06 12:25:52;;;;;;;5.68;2.72;;;20.80;36.90;;;;;;4966267;28;20035;-74
2021/01/06 12:28:38;;;;;;;3.72;2.15;;;20.80;36.90;;;;;;4935310;28;20043;-74
2021/01/06 12:31:05;;;;;;;4.15;2.28;;;20.80;36.90;;;;;;4962893;28;20050;-73
2021/01/06 12:33:52;;;;;;;4.45;1.95;;;20.70;36.80;;;;;;4989468;28;20019;-69
2021/01/06 12:36:31;;;;;;;3.47;2.00;;;20.70;36.90;;;;;;4990623;28;20068;-70
2021/01/06 12:39:20;;;;;;;2.97;1.58;;;20.70;37.00;;;;;;4990922;28;20138;-70
2021/01/06 12:41:48;;;;;;;1.40;1.27;;;20.70;37.00;;;;;;4991672;28;20038;-70
2021/01/06 12:44:19;;;;;;;3.42;1.80;;;20.70;37.10;;;;;;4976287;28;20122;-70
2021/01/06 12:47:05;;;;;;;5.40;2.70;;;20.70;37.10;;;;;;4957648;28;20499;-71
2021/01/06 12:49:58;;;;;;;3.97;1.88;;;20.70;37.10;;;;;;4962147;28;20049;-69
2021/01/06 12:52:35;;;;;;;3.03;1.00;;;20.80;37.10;;;;;;5003675;28;20038;-70
2021/01/06 12:55:20;;;;;;;1.45;1.33;;;20.80;37.10;;;;;;5020484;28;20040;-70
2021/01/06 12:57:54;;;;;;;1.90;1.02;;;20.80;37.10;;;;;;5052124;28;20013;-70
2021/01/06 13:00:42;;;;;;;3.03;1.98;;;20.80;37.00;;;;;;5086984;28;20029;-70
2021/01/06 13:03:25;;;;;;;2.50;1.52;;;20.80;37.10;;;;;;5069791;28;20027;-69
2021/01/06 13:06:03;;;;;;;2.65;1.80;;;20.80;37.10;;;;;;5072639;28;20032;-69
2021/01/06 13:08:53;;;;;;;2.97;1.90;;;20.80;37.10;;;;;;5041231;28;20036;-69
2021/01/06 13:11:39;;;;;;;4.22;1.67;;;20.80;37.10;;;;;;5059250;28;20049;-69
2021/01/06 13:14:13;;;;;;;3.25;1.52;;;20.80;37.10;;;;;;5060068;28;20023;-75
2021/01/06 13:16:47;;;;;;;3.28;1.65;;;20.80;37.00;;;;;;5074566;28;20032;-74
2021/01/06 13:19:33;;;;;;;3.08;1.52;;;20.80;36.90;;;;;;5073115;28;20028;-75
2021/01/06 13:22:03;;;;;;;3.00;1.85;;;20.90;36.80;;;;;;5071664;28;20515;-74
2021/01/06 13:24:30;;;;;;;2.90;1.33;;;20.90;36.80;;;;;;5059403;28;20028;-75
2021/01/06 13:26:59;;;;;;;2.35;1.67;;;20.90;36.70;;;;;;5076229;28;20137;-73
2021/01/06 13:29:27;;;;;;;2.92;1.70;;;20.90;36.70;;;;;;5079799;28;20047;-74
2021/01/06 13:32:14;;;;;;;3.22;1.55;;;20.90;36.70;;;;;;5068353;28;20021;-74
2021/01/06 13:34:52;;;;;;;2.17;1.55;;;20.90;36.70;;;;;;5063476;28;20023;-74
2021/01/06 13:37:20;;;;;;;1.52;1.30;;;20.90;36.60;;;;;;5076873;28;20387;-70
2021/01/06 13:40:14;;;;;;;2.25;1.48;;;20.90;36.70;;;;;;5089714;28;20556;-69